Time;durP1;ratioP1;P1;durP2;ratioP2;P2;SDS_P1;SDS_P2;PMS_P1;PMS_P2;Temp;Humidity;BMP_temperature;BMP_pressure;BME280_temperature;BME280_humidity;BME280_pressure;Samples;Min_cycle;Max_cycle;Signal;HPM_P1;HPM_P2
2021/03/17 00:00:29;;;;;;;5.33;4.83;;;4.50;99.90;;;;;;5002505;28;20461;-78
2021/03/17 00:03:14;;;;;;;5.40;4.57;;;4.50;99.90;;;;;;5008083;28;20448;-78
2021/03/17 00:05:59;;;;;;;6.70;5.23;;;4.50;99.90;;;;;;5006869;28;20505;-78
2021/03/17 00:08:44;;;;;;;5.13;4.43;;;4.50;99.90;;;;;;4997171;28;20962;-78
2021/03/17 00:11:28;;;;;;;6.60;5.43;;;4.50;99.90;;;;;;5004871;28;20961;-79
2021/03/17 00:14:13;;;;;;;5.67;4.93;;;4.50;99.90;;;;;;5012188;28;20486;-78
2021/03/17 00:16:59;;;;;;;5.73;5.13;;;4.50;99.90;;;;;;5005363;28;20435;-79
2021/03/17 00:19:44;;;;;;;6.27;4.93;;;4.50;99.90;;;;;;5003583;28;20507;-78
2021/03/17 00:22:29;;;;;;;5.13;4.40;;;4.50;99.90;;;;;;5004412;28;20508;-78
2021/03/17 00:25:14;;;;;;;6.90;5.50;;;4.50;99.90;;;;;;5057890;23;20524;-76
2021/03/17 00:28:01;;;;;;;5.33;4.70;;;4.50;99.90;;;;;;5049101;28;20479;-76
2021/03/17 00:30:46;;;;;;;5.60;5.00;;;4.50;99.90;;;;;;5040917;28;20520;-78
2021/03/17 00:33:32;;;;;;;6.93;4.70;;;4.50;99.90;;;;;;5049363;28;20430;-77
2021/03/17 00:36:17;;;;;;;5.20;4.70;;;4.50;99.90;;;;;;5028833;28;20481;-76
2021/03/17 00:39:03;;;;;;;6.33;4.70;;;4.40;99.90;;;;;;5031745;28;20578;-77
2021/03/17 00:41:48;;;;;;;6.13;4.80;;;4.40;99.90;;;;;;5032725;28;20438;-76
2021/03/17 00:44:33;;;;;;;6.20;5.10;;;4.40;99.90;;;;;;5022552;28;20528;-76
2021/03/17 00:47:18;;;;;;;6.77;4.60;;;4.40;99.90;;;;;;5025977;28;20498;-76
2021/03/17 00:49:45;;;;;;;6.57;4.40;;;4.40;99.90;;;;;;5013437;28;20492;-77
2021/03/17 00:52:13;;;;;;;5.97;4.43;;;4.40;99.90;;;;;;5006339;28;20203;-76
2021/03/17 00:54:57;;;;;;;4.80;4.27;;;4.30;99.90;;;;;;5024254;28;20889;-77
2021/03/17 00:57:34;;;;;;;5.67;4.43;;;4.30;99.90;;;;;;5028668;28;20440;-76
2021/03/17 01:00:00;;;;;;;4.20;3.80;;;4.30;99.90;;;;;;5013784;28;20514;-76
2021/03/17 01:02:27;;;;;;;4.47;3.97;;;4.30;99.90;;;;;;5029405;28;20454;-77
2021/03/17 01:04:54;;;;;;;4.73;4.30;;;4.30;99.90;;;;;;5011532;28;20470;-76
2021/03/17 01:07:21;;;;;;;7.70;4.90;;;4.30;99.90;;;;;;5031457;28;20434;-77
2021/03/17 01:09:47;;;;;;;6.13;4.33;;;4.30;99.90;;;;;;5006141;28;20454;-77
2021/03/17 01:12:14;;;;;;;7.17;4.70;;;4.30;99.90;;;;;;5005237;28;20462;-77
2021/03/17 01:14:41;;;;;;;6.10;4.37;;;4.30;99.90;;;;;;5012941;28;20465;-77
2021/03/17 01:17:07;;;;;;;8.17;5.33;;;4.20;99.90;;;;;;5026321;28;20450;-77
2021/03/17 01:19:34;;;;;;;6.03;4.73;;;4.30;99.90;;;;;;5029704;28;20459;-76
2021/03/17 01:22:01;;;;;;;8.87;5.07;;;4.20;99.90;;;;;;5028737;28;20480;-76
2021/03/17 01:24:28;;;;;;;5.40;4.87;;;4.30;99.90;;;;;;5030861;28;20497;-77
2021/03/17 01:26:55;;;;;;;7.37;5.73;;;4.30;99.90;;;;;;5023569;28;20434;-77
2021/03/17 01:29:22;;;;;;;5.00;4.50;;;4.30;99.90;;;;;;5026850;28;20434;-77
2021/03/17 01:31:48;;;;;;;6.27;5.20;;;4.30;99.90;;;;;;5029080;28;20443;-77
2021/03/17 01:34:15;;;;;;;5.60;4.97;;;4.30;99.90;;;;;;5030941;28;20968;-76
2021/03/17 01:36:41;;;;;;;6.40;5.30;;;4.30;99.90;;;;;;5028363;28;20434;-77
2021/03/17 01:39:09;;;;;;;5.73;4.50;;;4.30;99.90;;;;;;5029076;28;20453;-77
2021/03/17 01:41:35;;;;;;;7.23;5.30;;;4.20;99.90;;;;;;5015191;28;20450;-77
2021/03/17 01:44:03;;;;;;;6.23;4.67;;;4.20;99.90;;;;;;5031503;28;20811;-77
2021/03/17 01:46:29;;;;;;;4.97;4.47;;;4.20;99.90;;;;;;5002614;28;20435;-76
2021/03/17 01:48:56;;;;;;;4.80;4.23;;;4.20;99.90;;;;;;5004779;28;20458;-76
2021/03/17 01:51:22;;;;;;;6.03;4.60;;;4.20;99.90;;;;;;5030057;28;20446;-77
2021/03/17 01:53:49;;;;;;;5.47;4.70;;;4.20;99.90;;;;;;5027633;28;20435;-77
2021/03/17 01:56:17;;;;;;;4.73;4.23;;;4.20;99.90;;;;;;5022134;28;20860;-77
2021/03/17 01:58:43;;;;;;;6.57;4.40;;;4.20;99.90;;;;;;5024782;28;20438;-77
2021/03/17 02:01:10;;;;;;;5.00;4.37;;;4.20;99.90;;;;;;5029146;28;20439;-77
2021/03/17 02:03:36;;;;;;;5.33;4.60;;;4.20;99.90;;;;;;5016482;28;20454;-77
2021/03/17 02:06:02;;;;;;;5.37;4.67;;;4.20;99.90;;;;;;5022750;28;20466;-77
2021/03/17 02:08:33;;;;;;;5.13;4.47;;;4.10;99.90;;;;;;5020277;28;20465;-77
2021/03/17 02:10:59;;;;;;;4.60;4.17;;;4.10;99.90;;;;;;5023953;28;20939;-77
2021/03/17 02:13:40;;;;;;;4.93;4.10;;;4.10;99.90;;;;;;5031808;28;20442;-77
2021/03/17 02:16:13;;;;;;;5.93;4.83;;;4.10;99.90;;;;;;5023689;28;20430;-77
2021/03/17 02:18:49;;;;;;;6.13;4.30;;;4.00;99.90;;;;;;5012903;28;20971;-77
2021/03/17 02:21:19;;;;;;;4.63;4.20;;;4.00;99.90;;;;;;5017359;28;20963;-78
2021/03/17 02:23:57;;;;;;;5.47;4.37;;;4.00;99.90;;;;;;5034269;28;20439;-76
2021/03/17 02:26:48;;;;;;;4.17;3.73;;;4.00;99.90;;;;;;5026709;28;20477;-77
2021/03/17 02:29:54;;;;;;;4.80;4.30;;;4.00;99.90;;;;;;5004675;28;20516;-76
2021/03/17 02:32:41;;;;;;;4.40;4.00;;;4.10;99.90;;;;;;4984168;28;20478;-77
2021/03/17 02:35:10;;;;;;;5.40;4.07;;;4.10;99.90;;;;;;5008764;28;20849;-77
2021/03/17 02:37:40;;;;;;;4.47;4.07;;;4.10;99.90;;;;;;5026101;28;20948;-78
2021/03/17 02:40:10;;;;;;;4.30;3.90;;;4.00;99.90;;;;;;5006427;28;20459;-77
2021/03/17 02:42:41;;;;;;;4.80;4.20;;;4.00;99.90;;;;;;5024052;28;21034;-76
2021/03/17 02:45:10;;;;;;;6.03;4.70;;;4.00;99.90;;;;;;5005142;28;20481;-77
2021/03/17 02:47:41;;;;;;;5.73;4.40;;;4.00;99.90;;;;;;5026761;28;20434;-78
2021/03/17 02:50:12;;;;;;;7.03;5.30;;;4.00;99.90;;;;;;5016878;28;20465;-79
2021/03/17 02:52:43;;;;;;;7.13;4.83;;;4.00;99.90;;;;;;5007395;28;20462;-78
2021/03/17 02:55:11;;;;;;;4.97;4.47;;;3.90;99.90;;;;;;5027509;28;20490;-77
2021/03/17 02:57:41;;;;;;;6.23;5.30;;;4.00;99.90;;;;;;5032017;28;20447;-78
2021/03/17 03:00:10;;;;;;;5.07;4.57;;;4.00;99.90;;;;;;5014430;28;20463;-78
2021/03/17 03:02:38;;;;;;;5.57;4.50;;;4.00;99.90;;;;;;5026539;28;20858;-78
2021/03/17 03:05:07;;;;;;;5.67;4.57;;;4.00;99.90;;;;;;5026621;28;20884;-77
2021/03/17 03:07:35;;;;;;;4.67;4.27;;;4.00;99.90;;;;;;5027062;28;20438;-78
2021/03/17 03:10:06;;;;;;;6.37;4.70;;;3.90;99.90;;;;;;5027096;28;20437;-78
2021/03/17 03:12:33;;;;;;;7.07;5.13;;;4.00;99.90;;;;;;5005866;28;20446;-78
2021/03/17 03:15:00;;;;;;;6.10;5.00;;;4.00;99.90;;;;;;5013035;28;20470;-77
2021/03/17 03:17:27;;;;;;;5.67;5.13;;;4.00;99.90;;;;;;5032331;28;20450;-78
2021/03/17 03:19:56;;;;;;;8.00;5.40;;;4.00;99.90;;;;;;5011813;28;20451;-77
2021/03/17 03:22:24;;;;;;;6.13;4.93;;;3.90;99.90;;;;;;5030508;28;20447;-78
2021/03/17 03:24:53;;;;;;;6.20;5.50;;;3.90;99.90;;;;;;5027191;28;20490;-78
2021/03/17 03:27:20;;;;;;;6.53;5.40;;;3.90;99.90;;;;;;5008898;28;20450;-77
2021/03/17 03:29:47;;;;;;;6.57;5.73;;;3.90;99.90;;;;;;5030409;28;20439;-78
2021/03/17 03:32:14;;;;;;;6.83;5.70;;;3.80;99.90;;;;;;5027013;28;20803;-76
2021/03/17 03:34:40;;;;;;;7.37;5.50;;;3.80;99.90;;;;;;5033196;28;20457;-78
2021/03/17 03:37:07;;;;;;;5.73;5.13;;;3.90;99.90;;;;;;5034054;28;20465;-76
2021/03/17 03:39:33;;;;;;;6.20;5.43;;;3.90;99.90;;;;;;5014797;28;20440;-76
2021/03/17 03:42:01;;;;;;;6.07;5.37;;;3.90;99.90;;;;;;5028055;28;20439;-76
2021/03/17 03:44:27;;;;;;;5.90;5.30;;;3.90;99.90;;;;;;5016003;28;20477;-76
2021/03/17 03:46:54;;;;;;;6.03;4.90;;;3.80;99.90;;;;;;5033075;28;20430;-76
2021/03/17 03:49:21;;;;;;;7.70;5.20;;;3.80;99.90;;;;;;5033780;28;20433;-76
2021/03/17 03:51:56;;;;;;;6.87;5.30;;;3.80;99.90;;;;;;5032024;28;20434;-76
2021/03/17 03:54:28;;;;;;;6.73;5.77;;;3.80;99.90;;;;;;5030922;28;20461;-76
2021/03/17 03:56:58;;;;;;;8.10;6.33;;;3.80;99.90;;;;;;5045075;28;20456;-77
2021/03/17 03:59:29;;;;;;;6.20;5.57;;;3.80;99.90;;;;;;5027993;28;20439;-77
2021/03/17 04:01:58;;;;;;;5.93;5.33;;;3.80;99.90;;;;;;5029673;28;20430;-76
2021/03/17 04:04:37;;;;;;;6.30;5.17;;;3.80;99.90;;;;;;5022842;28;20488;-77
2021/03/17 04:07:04;;;;;;;6.27;5.53;;;3.80;99.90;;;;;;5022617;28;20485;-76
2021/03/17 04:09:33;;;;;;;6.10;5.30;;;3.90;99.90;;;;;;5011671;28;21033;-75
2021/03/17 04:12:02;;;;;;;6.80;5.20;;;3.90;99.90;;;;;;5022494;28;20427;-75
2021/03/17 04:14:31;;;;;;;6.60;5.33;;;3.90;99.90;;;;;;5032264;28;20520;-75
2021/03/17 04:17:02;;;;;;;7.13;5.77;;;3.80;99.90;;;;;;5006970;28;20447;-76
2021/03/17 04:19:32;;;;;;;6.40;5.80;;;3.80;99.90;;;;;;5024162;28;20443;-77
2021/03/17 04:21:59;;;;;;;8.57;6.03;;;3.80;99.90;;;;;;5027358;28;21146;-77
2021/03/17 04:24:27;;;;;;;6.27;5.03;;;3.80;99.90;;;;;;5025712;28;20959;-77
2021/03/17 04:26:56;;;;;;;8.13;6.17;;;3.80;99.90;;;;;;4992787;28;20512;-77
2021/03/17 04:29:24;;;;;;;6.97;6.23;;;3.80;99.90;;;;;;4992830;28;20445;-79
2021/03/17 04:31:52;;;;;;;7.03;6.13;;;3.80;99.90;;;;;;5020360;28;20430;-77
2021/03/17 04:34:19;;;;;;;7.00;6.10;;;3.70;99.90;;;;;;5014423;28;20524;-78
2021/03/17 04:36:48;;;;;;;6.70;5.87;;;3.70;99.90;;;;;;5025383;28;20459;-77
2021/03/17 04:39:15;;;;;;;8.47;6.87;;;3.70;99.90;;;;;;5029810;28;20439;-77
2021/03/17 04:41:42;;;;;;;7.20;6.10;;;3.70;99.90;;;;;;5027856;28;20435;-78
2021/03/17 04:44:09;;;;;;;6.60;5.77;;;3.80;99.90;;;;;;5029162;28;20465;-77
2021/03/17 04:46:36;;;;;;;7.03;6.17;;;3.80;99.90;;;;;;5031797;28;20491;-77
2021/03/17 04:49:04;;;;;;;7.27;5.67;;;3.80;99.90;;;;;;5032496;28;20431;-77
2021/03/17 04:51:31;;;;;;;8.00;6.17;;;3.80;99.90;;;;;;5015127;28;20500;-78
2021/03/17 04:53:57;;;;;;;6.57;5.87;;;3.80;99.90;;;;;;5032236;28;20458;-77
2021/03/17 04:56:25;;;;;;;7.67;6.20;;;3.80;99.90;;;;;;5023584;28;20447;-77
2021/03/17 04:58:53;;;;;;;7.27;6.07;;;3.80;99.90;;;;;;5009121;28;20551;-77
2021/03/17 05:01:21;;;;;;;6.67;5.97;;;3.80;99.90;;;;;;5029996;28;20449;-78
2021/03/17 05:03:48;;;;;;;6.80;5.40;;;3.80;99.90;;;;;;5009598;28;20490;-77
2021/03/17 05:06:16;;;;;;;6.67;5.60;;;3.80;99.90;;;;;;5030633;28;20474;-78
2021/03/17 05:08:45;;;;;;;7.00;6.30;;;3.80;99.90;;;;;;5024932;28;20868;-78
2021/03/17 05:11:15;;;;;;;6.87;5.80;;;3.80;99.90;;;;;;5014357;28;20454;-78
2021/03/17 05:13:43;;;;;;;7.00;5.70;;;3.90;99.90;;;;;;5027462;28;20500;-78
2021/03/17 05:16:12;;;;;;;7.10;5.80;;;3.80;99.90;;;;;;5010868;28;20508;-78
2021/03/17 05:18:39;;;;;;;7.20;5.97;;;3.80;99.90;;;;;;5026536;28;20434;-78
2021/03/17 05:21:22;;;;;;;7.80;5.93;;;3.80;99.90;;;;;;5029064;28;20563;-78
2021/03/17 05:23:49;;;;;;;6.70;5.80;;;3.80;99.90;;;;;;5005553;28;20927;-78
2021/03/17 05:26:16;;;;;;;6.33;5.73;;;3.80;99.90;;;;;;5022226;28;20482;-78
2021/03/17 05:28:43;;;;;;;6.87;5.97;;;3.80;99.90;;;;;;5003470;28;20998;-78
2021/03/17 05:31:10;;;;;;;6.50;5.80;;;3.80;99.90;;;;;;5023090;28;20439;-78
2021/03/17 05:33:40;;;;;;;6.93;6.03;;;3.80;99.90;;;;;;5007668;28;20475;-78
2021/03/17 05:36:07;;;;;;;6.87;6.17;;;3.80;99.90;;;;;;5018622;28;20472;-77
2021/03/17 05:38:34;;;;;;;7.00;6.30;;;3.80;99.90;;;;;;5005601;28;20485;-77
2021/03/17 05:41:01;;;;;;;7.97;6.17;;;3.80;99.90;;;;;;5020511;28;20459;-78
2021/03/17 05:43:28;;;;;;;8.90;6.57;;;3.80;99.90;;;;;;5022159;28;20434;-78
2021/03/17 05:45:55;;;;;;;8.27;6.77;;;3.80;99.90;;;;;;5024278;28;20581;-78
2021/03/17 05:48:25;;;;;;;8.30;6.63;;;3.80;99.90;;;;;;5010715;28;21027;-78
2021/03/17 05:50:51;;;;;;;7.20;6.17;;;3.80;99.90;;;;;;5011821;28;20480;-78
2021/03/17 05:53:18;;;;;;;7.33;6.47;;;3.80;99.90;;;;;;5010881;28;20451;-78
2021/03/17 05:55:45;;;;;;;8.63;6.47;;;3.80;99.90;;;;;;5016405;28;20477;-78
2021/03/17 05:58:12;;;;;;;6.70;6.00;;;3.80;99.90;;;;;;5010974;28;20447;-78
2021/03/17 06:00:38;;;;;;;7.80;6.70;;;3.80;99.90;;;;;;5019555;28;20434;-77
2021/03/17 06:03:05;;;;;;;7.43;6.27;;;3.80;99.90;;;;;;5019696;28;20432;-77
2021/03/17 06:05:32;;;;;;;7.10;6.17;;;3.80;99.90;;;;;;5021434;28;20483;-77
2021/03/17 06:08:05;;;;;;;7.73;6.60;;;3.90;99.90;;;;;;5026901;28;20511;-77
2021/03/17 06:10:32;;;;;;;7.40;6.37;;;3.90;99.90;;;;;;5022950;28;20461;-78
2021/03/17 06:13:01;;;;;;;8.33;7.27;;;4.00;99.90;;;;;;5002072;28;20457;-77
2021/03/17 06:15:29;;;;;;;7.53;6.40;;;4.00;99.90;;;;;;5004294;28;20470;-78
2021/03/17 06:17:59;;;;;;;8.73;6.83;;;4.10;99.90;;;;;;5019596;28;20795;-77
2021/03/17 06:20:26;;;;;;;8.93;7.37;;;4.10;99.90;;;;;;5012090;28;20466;-76
2021/03/17 06:22:52;;;;;;;8.07;6.77;;;4.20;99.90;;;;;;5008588;28;20496;-77
2021/03/17 06:25:20;;;;;;;7.30;6.33;;;4.20;99.90;;;;;;5037220;22;20874;-77
2021/03/17 06:27:47;;;;;;;7.90;6.90;;;4.20;99.90;;;;;;5006595;28;20458;-78
2021/03/17 06:30:15;;;;;;;7.63;6.50;;;4.20;99.90;;;;;;4998579;28;20455;-78
2021/03/17 06:32:41;;;;;;;7.60;6.77;;;4.20;99.90;;;;;;5004877;28;20808;-78
2021/03/17 06:35:19;;;;;;;8.23;6.83;;;4.20;99.90;;;;;;5010157;28;20459;-77
2021/03/17 06:37:45;;;;;;;7.87;6.87;;;4.20;99.90;;;;;;4999753;28;20946;-78
2021/03/17 06:40:24;;;;;;;6.77;6.07;;;4.20;99.90;;;;;;5008271;28;20438;-77
2021/03/17 06:42:51;;;;;;;8.03;7.23;;;4.10;99.90;;;;;;5006995;28;20442;-77
2021/03/17 06:45:30;;;;;;;8.00;6.67;;;4.20;99.90;;;;;;4986160;28;20470;-78
2021/03/17 06:47:56;;;;;;;8.47;6.90;;;4.20;99.90;;;;;;5004077;28;20224;-77
2021/03/17 06:50:29;;;;;;;8.57;7.00;;;4.20;99.90;;;;;;5002334;28;20523;-77
2021/03/17 06:52:55;;;;;;;7.90;6.50;;;4.20;99.90;;;;;;4986284;28;20542;-77
2021/03/17 06:55:22;;;;;;;8.23;7.30;;;4.30;99.90;;;;;;5001762;28;20467;-78
2021/03/17 06:57:51;;;;;;;8.40;7.37;;;4.20;99.90;;;;;;5009495;28;20938;-79
2021/03/17 07:00:30;;;;;;;8.10;7.03;;;4.30;99.90;;;;;;5021468;28;20826;-77
2021/03/17 07:02:59;;;;;;;8.73;7.47;;;4.40;99.90;;;;;;5015502;28;20515;-78
2021/03/17 07:05:40;;;;;;;8.30;7.33;;;4.40;99.90;;;;;;5009307;28;20220;-78
2021/03/17 07:08:09;;;;;;;9.67;7.70;;;4.40;99.90;;;;;;5004514;28;20930;-78
2021/03/17 07:10:40;;;;;;;9.47;7.73;;;4.50;99.90;;;;;;4988892;28;20205;-78
2021/03/17 07:13:08;;;;;;;9.20;7.47;;;4.50;99.90;;;;;;4987371;28;20476;-78
2021/03/17 07:15:37;;;;;;;8.50;7.30;;;4.50;99.90;;;;;;5008296;28;20580;-78
2021/03/17 07:18:18;;;;;;;9.10;7.27;;;4.50;99.90;;;;;;4992060;28;21022;-77
2021/03/17 07:20:47;;;;;;;10.57;7.93;;;4.50;99.90;;;;;;5003153;28;21000;-77
2021/03/17 07:23:27;;;;;;;9.00;7.90;;;4.50;99.90;;;;;;5012209;28;20439;-78
2021/03/17 07:26:16;;;;;;;9.80;8.20;;;4.50;99.90;;;;;;5004198;28;20487;-78
2021/03/17 07:29:00;;;;;;;9.73;8.10;;;4.50;99.90;;;;;;4993467;28;20505;-77
2021/03/17 07:31:29;;;;;;;10.70;8.40;;;4.50;99.90;;;;;;5009601;28;20454;-78
2021/03/17 07:34:07;;;;;;;9.90;8.13;;;4.60;99.90;;;;;;5010318;28;20428;-77
2021/03/17 07:36:37;;;;;;;14.07;10.03;;;4.60;99.90;;;;;;5007032;28;20191;-77
2021/03/17 07:39:07;;;;;;;13.53;10.23;;;4.40;99.90;;;;;;4990473;28;20208;-77
2021/03/17 07:41:34;;;;;;;12.70;10.27;;;4.40;99.90;;;;;;5003558;28;20449;-79
2021/03/17 07:44:04;;;;;;;15.03;10.53;;;4.40;99.90;;;;;;5007452;28;20227;-78
2021/03/17 07:46:32;;;;;;;16.47;9.73;;;4.40;99.90;;;;;;4986970;28;20477;-77
2021/03/17 07:48:59;;;;;;;12.60;10.47;;;4.40;99.90;;;;;;4986865;28;20205;-79
2021/03/17 07:51:26;;;;;;;12.87;10.23;;;4.50;99.90;;;;;;4993619;28;20251;-78
2021/03/17 07:53:55;;;;;;;13.30;10.70;;;4.60;99.90;;;;;;5010194;28;20204;-78
2021/03/17 07:56:23;;;;;;;15.57;11.23;;;4.70;99.90;;;;;;4987790;28;20225;-77
2021/03/17 07:58:50;;;;;;;13.67;10.37;;;4.70;99.90;;;;;;4987898;28;20197;-77
2021/03/17 08:01:18;;;;;;;14.57;11.83;;;4.80;99.90;;;;;;5006839;28;20434;-79
2021/03/17 08:03:47;;;;;;;16.63;12.50;;;4.80;99.90;;;;;;5019495;28;20212;-79
2021/03/17 08:06:18;;;;;;;14.97;11.47;;;4.90;99.90;;;;;;5006308;28;20209;-78
2021/03/17 08:08:45;;;;;;;15.57;11.07;;;4.90;99.90;;;;;;5000436;28;20199;-77
2021/03/17 08:11:14;;;;;;;14.73;11.50;;;5.00;99.90;;;;;;5006832;28;20207;-78
2021/03/17 08:13:43;;;;;;;17.30;12.90;;;5.00;99.90;;;;;;5004377;28;20209;-77
2021/03/17 08:16:12;;;;;;;16.77;12.47;;;5.20;99.90;;;;;;4989420;28;20247;-77
2021/03/17 08:18:47;;;;;;;15.20;11.70;;;5.30;99.90;;;;;;5005159;28;20228;-77
2021/03/17 08:21:14;;;;;;;16.07;12.17;;;5.40;99.90;;;;;;4986759;28;20667;-78
2021/03/17 08:23:45;;;;;;;16.17;12.07;;;5.40;99.90;;;;;;5008471;28;20193;-77
2021/03/17 08:26:14;;;;;;;17.03;13.07;;;5.50;99.90;;;;;;5009250;28;20703;-77
2021/03/17 08:28:51;;;;;;;15.57;12.67;;;5.30;99.90;;;;;;5005085;28;20203;-77
2021/03/17 08:31:49;;;;;;;16.27;11.73;;;5.20;99.90;;;;;;5005611;28;20276;-78
2021/03/17 08:34:28;;;;;;;17.80;12.67;;;5.20;99.90;;;;;;5010442;28;20231;-79
2021/03/17 08:36:57;;;;;;;17.57;12.00;;;5.30;99.90;;;;;;4987774;28;20185;-78
2021/03/17 08:39:45;;;;;;;13.43;10.43;;;5.30;99.90;;;;;;4986042;28;20201;-79
2021/03/17 08:42:14;;;;;;;16.17;12.03;;;5.40;99.90;;;;;;5003440;28;20560;-78
2021/03/17 08:44:48;;;;;;;15.37;11.60;;;5.70;99.90;;;;;;5005583;28;20217;-77
2021/03/17 08:47:30;;;;;;;15.43;11.40;;;5.90;99.90;;;;;;5004986;28;20248;-78
2021/03/17 08:50:16;;;;;;;13.70;10.63;;;6.20;99.90;;;;;;5007572;28;20268;-78
2021/03/17 08:52:46;;;;;;;13.30;9.43;;;6.40;99.90;;;;;;4984134;28;20374;-78
2021/03/17 08:55:14;;;;;;;13.57;10.40;;;6.80;99.90;;;;;;5006775;28;20221;-78
2021/03/17 08:58:03;;;;;;;11.57;9.23;;;6.90;99.90;;;;;;5006906;28;20201;-79
2021/03/17 09:00:53;;;;;;;11.30;7.70;;;7.10;99.90;;;;;;4994002;28;20472;-78
2021/03/17 09:03:44;;;;;;;11.67;8.50;;;7.40;99.90;;;;;;5012478;28;20213;-79
2021/03/17 09:06:14;;;;;;;10.27;6.70;;;7.90;99.90;;;;;;4995623;28;20215;-78
2021/03/17 09:08:53;;;;;;;8.60;7.10;;;7.90;99.90;;;;;;5009185;28;20198;-80
2021/03/17 09:11:59;;;;;;;9.57;8.03;;;7.70;99.90;;;;;;4992482;28;20296;-79
2021/03/17 09:14:32;;;;;;;8.70;7.30;;;7.40;99.90;;;;;;5009007;28;20215;-79
2021/03/17 09:17:23;;;;;;;12.67;8.30;;;7.70;99.90;;;;;;5007822;28;20184;-79
2021/03/17 09:20:11;;;;;;;9.47;7.27;;;7.70;99.90;;;;;;5004448;28;20200;-79
2021/03/17 09:22:44;;;;;;;8.40;7.33;;;7.40;99.90;;;;;;5004584;28;20230;-79
2021/03/17 09:25:22;;;;;;;8.80;6.80;;;7.50;99.90;;;;;;5007040;28;20218;-79
2021/03/17 09:27:51;;;;;;;7.70;6.23;;;7.80;99.90;;;;;;5006434;28;20199;-79
2021/03/17 09:30:20;;;;;;;7.87;6.33;;;8.40;99.90;;;;;;5008027;28;20219;-79
2021/03/17 09:32:47;;;;;;;9.77;6.83;;;8.20;99.90;;;;;;4986574;28;20245;-79
2021/03/17 09:35:14;;;;;;;7.67;6.30;;;8.10;99.90;;;;;;5008641;28;20224;-79
2021/03/17 09:37:42;;;;;;;8.37;5.17;;;8.00;99.90;;;;;;5006157;28;20203;-80
2021/03/17 09:40:12;;;;;;;6.97;4.97;;;8.10;99.90;;;;;;4989859;28;20262;-79
2021/03/17 09:42:39;;;;;;;7.60;5.30;;;8.50;99.90;;;;;;4986877;28;20200;-79
2021/03/17 09:45:08;;;;;;;7.00;5.30;;;8.90;99.90;;;;;;4998294;28;20216;-79
2021/03/17 09:47:35;;;;;;;7.57;5.93;;;9.30;99.90;;;;;;5003704;28;20197;-80
2021/03/17 09:50:01;;;;;;;8.00;7.20;;;9.90;99.90;;;;;;5009918;28;20197;-79
2021/03/17 09:52:28;;;;;;;6.37;4.40;;;10.40;99.90;;;;;;4989273;28;20207;-79
2021/03/17 09:54:55;;;;;;;5.50;5.00;;;10.60;99.90;;;;;;5010418;28;20223;-79
2021/03/17 09:57:23;;;;;;;7.40;6.73;;;10.80;99.90;;;;;;4991458;28;20205;-78
2021/03/17 09:59:50;;;;;;;7.10;6.40;;;10.10;99.90;;;;;;5006860;28;20196;-78
2021/03/17 10:02:21;;;;;;;7.43;6.73;;;9.80;99.90;;;;;;4997998;28;20196;-80
2021/03/17 10:04:49;;;;;;;6.40;5.80;;;10.10;99.90;;;;;;5003815;28;20217;-79
2021/03/17 10:07:17;;;;;;;6.50;6.00;;;10.50;99.90;;;;;;4990770;28;20227;-79
2021/03/17 10:09:43;;;;;;;8.63;6.20;;;10.50;99.90;;;;;;4989781;28;20256;-80
2021/03/17 10:12:13;;;;;;;6.90;5.73;;;10.30;99.90;;;;;;5010378;28;20200;-79
2021/03/17 10:14:44;;;;;;;6.83;5.40;;;10.20;99.90;;;;;;5005793;28;20212;-79
2021/03/17 10:17:10;;;;;;;7.27;5.70;;;10.20;99.90;;;;;;5005821;28;20610;-79
2021/03/17 10:19:38;;;;;;;6.03;5.53;;;10.20;99.90;;;;;;5013987;28;20215;-78
2021/03/17 10:22:05;;;;;;;6.93;5.73;;;9.60;99.90;;;;;;5007249;28;20208;-79
2021/03/17 10:24:38;;;;;;;6.40;5.80;;;9.20;99.90;;;;;;4985878;28;20356;-81
2021/03/17 10:27:06;;;;;;;6.60;6.00;;;9.30;99.90;;;;;;5007119;28;20248;-79
2021/03/17 10:29:33;;;;;;;6.10;5.60;;;9.30;99.90;;;;;;4985517;28;20240;-78
2021/03/17 10:32:00;;;;;;;6.50;6.00;;;9.10;99.90;;;;;;4990543;28;20204;-79
2021/03/17 10:34:28;;;;;;;6.73;6.13;;;8.90;99.90;;;;;;5010942;28;20223;-79
2021/03/17 10:36:56;;;;;;;6.17;5.67;;;9.30;99.90;;;;;;5006466;28;20228;-79
2021/03/17 10:39:28;;;;;;;5.77;5.27;;;9.40;99.90;;;;;;5013598;28;20201;-80
2021/03/17 10:41:54;;;;;;;6.47;5.87;;;9.10;99.90;;;;;;5013516;28;20200;-80
2021/03/17 10:44:23;;;;;;;7.57;6.20;;;9.00;99.90;;;;;;4989970;28;20212;-80
2021/03/17 10:47:07;;;;;;;6.80;6.20;;;8.70;99.90;;;;;;5011107;28;20213;-79
2021/03/17 10:49:36;;;;;;;6.30;5.80;;;8.70;99.90;;;;;;5007669;28;20205;-79
2021/03/17 10:52:03;;;;;;;7.67;6.10;;;8.60;99.90;;;;;;5008398;28;20314;-79
2021/03/17 10:54:32;;;;;;;4.93;4.43;;;8.70;99.90;;;;;;5008008;28;20235;-79
2021/03/17 10:56:58;;;;;;;4.60;3.30;;;8.80;99.90;;;;;;5007103;28;20197;-79
2021/03/17 10:59:26;;;;;;;3.53;3.23;;;9.10;99.90;;;;;;5008334;28;20607;-78
2021/03/17 11:02:23;;;;;;;5.13;3.63;;;9.50;99.90;;;;;;5008692;28;20248;-78
2021/03/17 11:05:10;;;;;;;5.47;5.07;;;9.70;99.90;;;;;;4987710;28;20221;-79
2021/03/17 11:07:58;;;;;;;5.47;5.07;;;9.90;99.90;;;;;;4988176;28;20264;-78
2021/03/17 11:10:47;;;;;;;5.70;5.20;;;9.70;99.90;;;;;;4999206;28;20204;-80
2021/03/17 11:13:34;;;;;;;5.10;4.70;;;10.00;99.90;;;;;;5008536;28;20211;-78
2021/03/17 11:16:10;;;;;;;5.73;5.20;;;10.30;99.90;;;;;;5011727;28;20219;-79
2021/03/17 11:18:46;;;;;;;8.80;5.70;;;10.20;99.90;;;;;;5015215;28;20208;-78
2021/03/17 11:21:18;;;;;;;6.07;5.30;;;10.20;99.90;;;;;;5015835;28;20227;-80
2021/03/17 11:23:45;;;;;;;5.90;5.40;;;10.10;99.90;;;;;;5016129;28;20666;-78
2021/03/17 11:26:24;;;;;;;5.97;5.47;;;9.80;99.90;;;;;;5012275;28;20561;-78
2021/03/17 11:28:51;;;;;;;4.97;4.57;;;9.40;99.90;;;;;;5004949;28;20193;-80
2021/03/17 11:31:39;;;;;;;5.80;5.23;;;9.20;99.90;;;;;;5012654;28;20209;-77
2021/03/17 11:34:08;;;;;;;5.30;4.90;;;8.90;99.90;;;;;;4999155;28;20213;-79
2021/03/17 11:36:34;;;;;;;4.57;4.17;;;8.70;99.90;;;;;;5006925;28;20678;-78
2021/03/17 11:39:05;;;;;;;6.57;5.93;;;8.60;99.90;;;;;;5008415;28;20200;-78
2021/03/17 11:41:32;;;;;;;6.40;5.77;;;8.40;99.90;;;;;;5003431;28;20201;-78
2021/03/17 11:43:58;;;;;;;4.20;3.80;;;8.30;99.90;;;;;;5011351;28;20211;-78
2021/03/17 11:46:25;;;;;;;4.20;3.80;;;8.20;99.90;;;;;;5012815;28;20207;-78
2021/03/17 11:48:52;;;;;;;7.00;6.40;;;8.20;99.90;;;;;;5015609;28;20212;-78
2021/03/17 11:51:20;;;;;;;4.77;4.27;;;8.20;99.90;;;;;;5008924;28;20228;-79
2021/03/17 11:53:46;;;;;;;5.50;5.03;;;8.20;99.90;;;;;;5015143;28;20192;-78
2021/03/17 11:56:13;;;;;;;6.10;5.60;;;8.20;99.90;;;;;;5007476;28;20212;-78
2021/03/17 11:58:40;;;;;;;5.80;5.30;;;8.20;99.90;;;;;;5005128;28;20197;-78
2021/03/17 12:01:08;;;;;;;6.20;5.70;;;8.20;99.90;;;;;;5011645;28;20204;-77
2021/03/17 12:03:34;;;;;;;6.20;5.70;;;8.20;99.90;;;;;;5003922;28;20212;-79
2021/03/17 12:06:01;;;;;;;6.03;5.53;;;8.10;99.90;;;;;;5009800;28;20268;-78
2021/03/17 12:08:29;;;;;;;6.13;5.37;;;8.00;99.90;;;;;;5009327;28;20871;-78
2021/03/17 12:10:56;;;;;;;5.00;3.97;;;7.90;99.90;;;;;;5007730;28;20623;-79
2021/03/17 12:13:24;;;;;;;5.40;3.30;;;7.90;99.90;;;;;;5012545;28;20209;-77
2021/03/17 12:15:51;;;;;;;4.40;3.77;;;7.80;99.90;;;;;;4996237;28;20293;-78
2021/03/17 12:18:17;;;;;;;4.07;3.63;;;7.80;99.90;;;;;;4996070;28;20267;-78
2021/03/17 12:20:44;;;;;;;3.73;3.33;;;7.90;99.90;;;;;;4996815;28;20244;-77
2021/03/17 12:23:12;;;;;;;3.77;3.20;;;7.80;99.90;;;;;;4996600;28;20197;-79
2021/03/17 12:25:39;;;;;;;4.67;3.83;;;7.80;99.90;;;;;;5009934;23;20224;-77
2021/03/17 12:28:06;;;;;;;4.57;4.10;;;7.70;99.90;;;;;;5004848;28;20200;-77
2021/03/17 12:30:32;;;;;;;4.30;3.90;;;7.30;99.90;;;;;;5011704;28;20203;-77
2021/03/17 12:32:58;;;;;;;6.20;4.70;;;7.40;99.90;;;;;;5012635;28;20267;-76
2021/03/17 12:35:27;;;;;;;4.97;4.13;;;7.30;99.90;;;;;;4991239;28;20235;-78
2021/03/17 12:37:54;;;;;;;8.60;4.83;;;7.40;99.90;;;;;;5003587;28;20205;-77
2021/03/17 12:40:24;;;;;;;7.07;5.20;;;7.40;99.90;;;;;;5008411;28;20199;-77
2021/03/17 12:42:52;;;;;;;5.93;5.03;;;7.40;99.90;;;;;;4985343;28;20198;-77
2021/03/17 12:45:20;;;;;;;7.70;5.37;;;7.40;99.90;;;;;;5002638;28;20212;-77
2021/03/17 12:47:47;;;;;;;8.53;5.53;;;7.20;99.90;;;;;;4986104;28;20673;-78
2021/03/17 12:50:15;;;;;;;5.77;4.80;;;7.30;99.90;;;;;;5003255;28;20203;-77
2021/03/17 12:52:43;;;;;;;6.67;4.90;;;7.30;99.90;;;;;;4999135;28;20246;-77
2021/03/17 12:55:10;;;;;;;7.10;5.37;;;7.10;99.90;;;;;;4980162;28;20643;-77
2021/03/17 12:57:39;;;;;;;6.53;5.17;;;7.00;99.90;;;;;;4980534;28;20204;-77
2021/03/17 13:00:09;;;;;;;9.07;5.20;;;7.10;99.90;;;;;;4979536;28;20210;-77
2021/03/17 13:02:35;;;;;;;6.67;5.30;;;7.20;99.90;;;;;;4983734;28;20635;-77
2021/03/17 13:05:02;;;;;;;7.23;5.00;;;7.40;99.90;;;;;;4987836;28;20226;-79
2021/03/17 13:07:28;;;;;;;6.63;5.00;;;7.60;99.90;;;;;;4986269;28;20284;-78
2021/03/17 13:09:54;;;;;;;7.07;5.40;;;7.60;99.90;;;;;;4983386;28;20197;-77
2021/03/17 13:12:20;;;;;;;6.77;5.17;;;7.60;99.90;;;;;;4997052;28;20200;-77
2021/03/17 13:14:47;;;;;;;7.20;4.97;;;7.50;99.90;;;;;;4999123;28;20205;-77